sensor_id;sensor_type;location;lat;lon;timestamp;pressure;altitude;pressure_sealevel;temperature;humidity
13734;BME280;43298;52.560;13.508;2022-12-18T00:01:31;102541.25;;;-5.47;100.00
13734;BME280;43298;52.560;13.508;2022-12-18T00:03:59;102546.44;;;-5.44;100.00
13734;BME280;43298;52.560;13.508;2022-12-18T00:06:27;102550.59;;;-5.44;100.00
13734;BME280;43298;52.560;13.508;2022-12-18T00:08:55;102555.72;;;-5.43;100.00
13734;BME280;43298;52.560;13.508;2022-12-18T00:11:24;102549.75;;;-5.29;100.00
13734;BME280;43298;52.560;13.508;2022-12-18T00:13:51;102553.66;;;-5.18;100.00
13734;BME280;43298;52.560;13.508;2022-12-18T00:16:21;102568.56;;;-5.38;100.00
13734;BME280;43298;52.560;13.508;2022-12-18T00:18:52;102571.63;;;-5.44;100.00
13734;BME280;43298;52.560;13.508;2022-12-18T00:21:19;102567.16;;;-5.49;100.00
13734;BME280;43298;52.560;13.508;2022-12-18T00:23:47;102569.03;;;-5.45;100.00
13734;BME280;43298;52.560;13.508;2022-12-18T00:26:17;102560.59;;;-5.46;100.00
13734;BME280;43298;52.560;13.508;2022-12-18T00:28:44;102561.38;;;-5.63;100.00
13734;BME280;43298;52.560;13.508;2022-12-18T00:31:16;102560.81;;;-5.73;100.00
13734;BME280;43298;52.560;13.508;2022-12-18T00:33:43;102564.53;;;-5.83;100.00
13734;BME280;43298;52.560;13.508;2022-12-18T00:38:41;102561.16;;;-5.67;100.00
13734;BME280;43298;52.560;13.508;2022-12-18T00:41:08;102560.44;;;-5.65;100.00
13734;BME280;43298;52.560;13.508;2022-12-18T00:43:35;102559.56;;;-5.65;100.00
13734;BME280;43298;52.560;13.508;2022-12-18T00:46:01;102559.94;;;-5.74;100.00
13734;BME280;43298;52.560;13.508;2022-12-18T00:48:27;102556.19;;;-5.82;100.00
13734;BME280;43298;52.560;13.508;2022-12-18T00:50:52;102557.28;;;-5.77;100.00
13734;BME280;43298;52.560;13.508;2022-12-18T00:53:18;102557.97;;;-5.79;100.00
13734;BME280;43298;52.560;13.508;2022-12-18T00:55:45;102546.88;;;-5.67;100.00
13734;BME280;43298;52.560;13.508;2022-12-18T00:58:12;102551.94;;;-5.67;100.00
13734;BME280;43298;52.560;13.508;2022-12-18T01:00:38;102551.06;;;-5.67;100.00
13734;BME280;43298;52.560;13.508;2022-12-18T01:03:05;102544.38;;;-5.67;100.00
13734;BME280;43298;52.560;13.508;2022-12-18T01:05:32;102538.41;;;-5.69;100.00
13734;BME280;43298;52.560;13.508;2022-12-18T01:07:58;102537.06;;;-5.78;100.00
13734;BME280;43298;52.560;13.508;2022-12-18T01:10:24;102549.75;;;-5.77;100.00
13734;BME280;43298;52.560;13.508;2022-12-18T01:12:51;102558.84;;;-5.79;100.00
13734;BME280;43298;52.560;13.508;2022-12-18T01:15:17;102563.41;;;-5.88;100.00
13734;BME280;43298;52.560;13.508;2022-12-18T01:17:43;102564.22;;;-5.89;100.00
13734;BME280;43298;52.560;13.508;2022-12-18T01:20:11;102570.84;;;-5.91;100.00
13734;BME280;43298;52.560;13.508;2022-12-18T01:22:38;102572.56;;;-5.90;100.00
13734;BME280;43298;52.560;13.508;2022-12-18T01:25:05;102577.09;;;-5.99;100.00
13734;BME280;43298;52.560;13.508;2022-12-18T01:27:33;102578.94;;;-5.96;100.00
13734;BME280;43298;52.560;13.508;2022-12-18T01:29:59;102592.28;;;-5.97;100.00
13734;BME280;43298;52.560;13.508;2022-12-18T01:32:25;102584.53;;;-5.86;100.00
13734;BME280;43298;52.560;13.508;2022-12-18T01:34:50;102580.19;;;-5.88;100.00
13734;BME280;43298;52.560;13.508;2022-12-18T01:37:16;102583.88;;;-5.98;100.00
13734;BME280;43298;52.560;13.508;2022-12-18T01:39:42;102590.63;;;-5.97;100.00
13734;BME280;43298;52.560;13.508;2022-12-18T01:42:14;102592.69;;;-5.90;100.00
13734;BME280;43298;52.560;13.508;2022-12-18T01:45:05;102587.75;;;-5.88;100.00
13734;BME280;43298;52.560;13.508;2022-12-18T01:47:45;102586.41;;;-5.82;100.00
13734;BME280;43298;52.560;13.508;2022-12-18T01:50:40;102584.69;;;-5.83;100.00
13734;BME280;43298;52.560;13.508;2022-12-18T01:53:17;102584.53;;;-5.86;100.00
13734;BME280;43298;52.560;13.508;2022-12-18T01:55:52;102579.94;;;-5.93;100.00
13734;BME280;43298;52.560;13.508;2022-12-18T01:58:20;102588.13;;;-5.97;100.00
13734;BME280;43298;52.560;13.508;2022-12-18T02:00:47;102590.34;;;-5.87;100.00
13734;BME280;43298;52.560;13.508;2022-12-18T02:03:13;102588.75;;;-5.85;100.00
13734;BME280;43298;52.560;13.508;2022-12-18T02:06:12;102588.38;;;-5.92;100.00
13734;BME280;43298;52.560;13.508;2022-12-18T02:12:13;102587.31;;;-5.96;100.00
13734;BME280;43298;52.560;13.508;2022-12-18T02:26:05;102597.72;;;-5.90;100.00
13734;BME280;43298;52.560;13.508;2022-12-18T02:28:40;102587.84;;;-5.87;100.00
13734;BME280;43298;52.560;13.508;2022-12-18T02:31:13;102599.47;;;-5.89;100.00
13734;BME280;43298;52.560;13.508;2022-12-18T02:33:41;102598.84;;;-5.85;100.00
13734;BME280;43298;52.560;13.508;2022-12-18T02:36:10;102599.94;;;-5.80;100.00
13734;BME280;43298;52.560;13.508;2022-12-18T02:38:39;102602.13;;;-5.70;100.00
13734;BME280;43298;52.560;13.508;2022-12-18T02:41:06;102601.28;;;-5.70;100.00
13734;BME280;43298;52.560;13.508;2022-12-18T02:43:33;102605.69;;;-5.66;100.00
13734;BME280;43298;52.560;13.508;2022-12-18T02:46:00;102608.50;;;-5.76;100.00
13734;BME280;43298;52.560;13.508;2022-12-18T02:48:46;102614.41;;;-5.76;100.00
13734;BME280;43298;52.560;13.508;2022-12-18T02:51:33;102624.00;;;-5.85;100.00
13734;BME280;43298;52.560;13.508;2022-12-18T02:54:15;102619.69;;;-5.87;100.00
13734;BME280;43298;52.560;13.508;2022-12-18T02:56:51;102622.03;;;-5.90;100.00
13734;BME280;43298;52.560;13.508;2022-12-18T02:59:25;102619.78;;;-5.86;100.00
13734;BME280;43298;52.560;13.508;2022-12-18T03:02:25;102615.69;;;-5.84;100.00
13734;BME280;43298;52.560;13.508;2022-12-18T03:07:49;102621.41;;;-5.86;100.00
13734;BME280;43298;52.560;13.508;2022-12-18T03:10:23;102617.06;;;-6.05;100.00
13734;BME280;43298;52.560;13.508;2022-12-18T03:12:58;102625.22;;;-6.09;100.00
13734;BME280;43298;52.560;13.508;2022-12-18T03:15:34;102624.97;;;-6.13;100.00
13734;BME280;43298;52.560;13.508;2022-12-18T03:18:09;102619.03;;;-6.14;100.00
13734;BME280;43298;52.560;13.508;2022-12-18T03:20:37;102617.50;;;-6.12;100.00
13734;BME280;43298;52.560;13.508;2022-12-18T03:23:17;102621.06;;;-6.23;100.00
13734;BME280;43298;52.560;13.508;2022-12-18T03:25:45;102631.28;;;-6.20;100.00
13734;BME280;43298;52.560;13.508;2022-12-18T03:28:19;102621.75;;;-6.25;100.00
13734;BME280;43298;52.560;13.508;2022-12-18T03:30:49;102620.19;;;-6.23;100.00
13734;BME280;43298;52.560;13.508;2022-12-18T03:33:34;102620.19;;;-6.23;100.00
13734;BME280;43298;52.560;13.508;2022-12-18T03:36:03;102623.22;;;-6.29;100.00
13734;BME280;43298;52.560;13.508;2022-12-18T03:38:29;102620.44;;;-6.33;100.00
13734;BME280;43298;52.560;13.508;2022-12-18T03:41:25;102609.16;;;-6.25;100.00
13734;BME280;43298;52.560;13.508;2022-12-18T03:43:59;102608.22;;;-6.27;100.00
13734;BME280;43298;52.560;13.508;2022-12-18T03:50:11;102616.81;;;-6.38;100.00
13734;BME280;43298;52.560;13.508;2022-12-18T03:53:04;102624.72;;;-6.47;100.00
13734;BME280;43298;52.560;13.508;2022-12-18T03:55:33;102628.47;;;-6.55;100.00
13734;BME280;43298;52.560;13.508;2022-12-18T03:58:02;102631.81;;;-6.55;100.00
13734;BME280;43298;52.560;13.508;2022-12-18T04:00:29;102638.44;;;-6.57;100.00
13734;BME280;43298;52.560;13.508;2022-12-18T04:02:57;102636.75;;;-6.56;100.00
13734;BME280;43298;52.560;13.508;2022-12-18T04:05:27;102637.91;;;-6.51;100.00
13734;BME280;43298;52.560;13.508;2022-12-18T04:07:55;102642.31;;;-6.47;100.00
13734;BME280;43298;52.560;13.508;2022-12-18T04:10:22;102631.28;;;-6.49;100.00
13734;BME280;43298;52.560;13.508;2022-12-18T04:12:48;102627.50;;;-6.57;100.00
13734;BME280;43298;52.560;13.508;2022-12-18T04:15:14;102624.78;;;-6.60;100.00
13734;BME280;43298;52.560;13.508;2022-12-18T04:17:48;102632.59;;;-6.56;100.00
13734;BME280;43298;52.560;13.508;2022-12-18T04:20:14;102634.25;;;-6.56;100.00
13734;BME280;43298;52.560;13.508;2022-12-18T04:22:40;102642.03;;;-6.66;100.00
13734;BME280;43298;52.560;13.508;2022-12-18T04:25:06;102640.84;;;-6.58;100.00
13734;BME280;43298;52.560;13.508;2022-12-18T04:27:32;102641.78;;;-6.56;100.00
13734;BME280;43298;52.560;13.508;2022-12-18T04:29:58;102646.13;;;-6.54;100.00
13734;BME280;43298;52.560;13.508;2022-12-18T04:32:23;102640.25;;;-6.54;100.00
13734;BME280;43298;52.560;13.508;2022-12-18T04:34:49;102644.91;;;-6.60;100.00
13734;BME280;43298;52.560;13.508;2022-12-18T04:37:15;102645.34;;;-6.67;100.00
13734;BME280;43298;52.560;13.508;2022-12-18T04:39:41;102646.31;;;-6.65;100.00
13734;BME280;43298;52.560;13.508;2022-12-18T04:42:06;102652.88;;;-6.67;100.00
13734;BME280;43298;52.560;13.508;2022-12-18T04:44:32;102654.47;;;-6.69;100.00
13734;BME280;43298;52.560;13.508;2022-12-18T04:46:58;102652.53;;;-6.73;100.00
13734;BME280;43298;52.560;13.508;2022-12-18T04:49:24;102652.47;;;-6.75;100.00
13734;BME280;43298;52.560;13.508;2022-12-18T04:51:50;102657.72;;;-6.70;100.00
13734;BME280;43298;52.560;13.508;2022-12-18T04:54:15;102641.19;;;-6.67;100.00
13734;BME280;43298;52.560;13.508;2022-12-18T04:56:41;102650.38;;;-6.67;100.00
13734;BME280;43298;52.560;13.508;2022-12-18T04:59:07;102646.38;;;-6.78;100.00
13734;BME280;43298;52.560;13.508;2022-12-18T05:01:33;102652.00;;;-6.82;100.00
13734;BME280;43298;52.560;13.508;2022-12-18T05:03:58;102655.47;;;-6.80;100.00
13734;BME280;43298;52.560;13.508;2022-12-18T05:06:24;102650.88;;;-6.73;100.00
13734;BME280;43298;52.560;13.508;2022-12-18T05:08:50;102662.59;;;-6.73;100.00
13734;BME280;43298;52.560;13.508;2022-12-18T05:11:16;102663.13;;;-6.64;100.00
13734;BME280;43298;52.560;13.508;2022-12-18T05:13:44;102669.97;;;-6.62;100.00
13734;BME280;43298;52.560;13.508;2022-12-18T05:16:10;102657.81;;;-6.69;100.00
13734;BME280;43298;52.560;13.508;2022-12-18T05:18:36;102660.78;;;-6.61;100.00
13734;BME280;43298;52.560;13.508;2022-12-18T05:21:03;102671.72;;;-6.61;100.00
13734;BME280;43298;52.560;13.508;2022-12-18T05:23:29;102679.69;;;-6.53;100.00
13734;BME280;43298;52.560;13.508;2022-12-18T05:26:01;102690.63;;;-6.53;100.00
13734;BME280;43298;52.560;13.508;2022-12-18T05:28:30;102690.81;;;-6.50;100.00
13734;BME280;43298;52.560;13.508;2022-12-18T05:31:00;102683.78;;;-6.55;100.00
13734;BME280;43298;52.560;13.508;2022-12-18T05:33:29;102696.00;;;-6.47;100.00
13734;BME280;43298;52.560;13.508;2022-12-18T05:36:00;102694.38;;;-6.46;100.00
13734;BME280;43298;52.560;13.508;2022-12-18T05:38:27;102698.09;;;-6.54;100.00
13734;BME280;43298;52.560;13.508;2022-12-18T05:40:54;102699.31;;;-6.62;100.00
13734;BME280;43298;52.560;13.508;2022-12-18T05:43:22;102714.22;;;-6.65;100.00
13734;BME280;43298;52.560;13.508;2022-12-18T05:45:50;102701.31;;;-6.57;100.00
13734;BME280;43298;52.560;13.508;2022-12-18T05:48:16;102706.66;;;-6.65;100.00
13734;BME280;43298;52.560;13.508;2022-12-18T05:50:44;102701.72;;;-6.64;100.00
13734;BME280;43298;52.560;13.508;2022-12-18T05:53:16;102699.31;;;-6.62;100.00
13734;BME280;43298;52.560;13.508;2022-12-18T05:55:43;102699.31;;;-6.62;100.00
13734;BME280;43298;52.560;13.508;2022-12-18T05:58:10;102690.88;;;-6.63;100.00
13734;BME280;43298;52.560;13.508;2022-12-18T06:00:39;102700.53;;;-6.56;100.00
13734;BME280;43298;52.560;13.508;2022-12-18T06:03:07;102705.88;;;-6.64;100.00
13734;BME280;43298;52.560;13.508;2022-12-18T06:05:42;102708.16;;;-6.54;100.00
13734;BME280;43298;52.560;13.508;2022-12-18T06:08:09;102709.28;;;-6.49;100.00
13734;BME280;43298;52.560;13.508;2022-12-18T06:10:35;102712.59;;;-6.50;100.00
13734;BME280;43298;52.560;13.508;2022-12-18T06:13:01;102723.00;;;-6.44;100.00
13734;BME280;43298;52.560;13.508;2022-12-18T06:15:27;102718.16;;;-6.41;100.00
13734;BME280;43298;52.560;13.508;2022-12-18T06:17:53;102714.50;;;-6.46;100.00
13734;BME280;43298;52.560;13.508;2022-12-18T06:20:19;102711.47;;;-6.41;100.00
13734;BME280;43298;52.560;13.508;2022-12-18T06:22:45;102715.66;;;-6.41;100.00
13734;BME280;43298;52.560;13.508;2022-12-18T06:25:11;102731.69;;;-6.39;100.00
13734;BME280;43298;52.560;13.508;2022-12-18T06:27:37;102727.53;;;-6.38;100.00
13734;BME280;43298;52.560;13.508;2022-12-18T06:30:04;102728.13;;;-6.43;100.00
13734;BME280;43298;52.560;13.508;2022-12-18T06:32:30;102727.53;;;-6.38;100.00
13734;BME280;43298;52.560;13.508;2022-12-18T06:34:56;102736.09;;;-6.35;100.00
13734;BME280;43298;52.560;13.508;2022-12-18T06:37:22;102745.47;;;-6.32;100.00
13734;BME280;43298;52.560;13.508;2022-12-18T06:39:54;102751.28;;;-6.33;100.00
13734;BME280;43298;52.560;13.508;2022-12-18T06:42:22;102750.41;;;-6.34;100.00
13734;BME280;43298;52.560;13.508;2022-12-18T06:44:48;102760.56;;;-6.32;100.00
13734;BME280;43298;52.560;13.508;2022-12-18T06:47:14;102764.94;;;-6.30;100.00
13734;BME280;43298;52.560;13.508;2022-12-18T06:49:40;102765.03;;;-6.28;100.00
13734;BME280;43298;52.560;13.508;2022-12-18T06:52:05;102756.88;;;-6.24;100.00
13734;BME280;43298;52.560;13.508;2022-12-18T06:54:35;102756.97;;;-6.23;100.00
13734;BME280;43298;52.560;13.508;2022-12-18T06:57:00;102760.25;;;-6.24;100.00
13734;BME280;43298;52.560;13.508;2022-12-18T06:59:26;102773.59;;;-6.25;100.00
13734;BME280;43298;52.560;13.508;2022-12-18T07:01:52;102780.03;;;-6.30;100.00
13734;BME280;43298;52.560;13.508;2022-12-18T07:04:18;102782.66;;;-6.28;100.00
13734;BME280;43298;52.560;13.508;2022-12-18T07:06:44;102780.97;;;-6.28;100.00
13734;BME280;43298;52.560;13.508;2022-12-18T07:09:09;102768.56;;;-6.25;100.00
13734;BME280;43298;52.560;13.508;2022-12-18T07:11:35;102766.06;;;-6.25;100.00
13734;BME280;43298;52.560;13.508;2022-12-18T07:14:01;102757.53;;;-6.27;100.00
13734;BME280;43298;52.560;13.508;2022-12-18T07:16:27;102752.69;;;-6.24;100.00
13734;BME280;43298;52.560;13.508;2022-12-18T07:18:55;102760.25;;;-6.24;100.00
13734;BME280;43298;52.560;13.508;2022-12-18T07:21:23;102761.31;;;-6.20;100.00
13734;BME280;43298;52.560;13.508;2022-12-18T07:23:49;102767.19;;;-6.20;100.00
13734;BME280;43298;52.560;13.508;2022-12-18T07:26:18;102763.31;;;-6.15;100.00
13734;BME280;43298;52.560;13.508;2022-12-18T07:28:45;102765.28;;;-6.24;100.00
13734;BME280;43298;52.560;13.508;2022-12-18T07:31:17;102781.25;;;-6.23;100.00
13734;BME280;43298;52.560;13.508;2022-12-18T07:33:45;102782.03;;;-6.24;100.00
13734;BME280;43298;52.560;13.508;2022-12-18T07:36:12;102775.16;;;-6.27;100.00
13734;BME280;43298;52.560;13.508;2022-12-18T07:38:38;102776.81;;;-6.27;100.00
13734;BME280;43298;52.560;13.508;2022-12-18T07:41:10;102772.56;;;-6.28;100.00
13734;BME280;43298;52.560;13.508;2022-12-18T07:43:37;102775.41;;;-6.37;100.00
13734;BME280;43298;52.560;13.508;2022-12-18T07:46:04;102788.84;;;-6.37;100.00
13734;BME280;43298;52.560;13.508;2022-12-18T07:48:31;102793.19;;;-6.34;100.00
13734;BME280;43298;52.560;13.508;2022-12-18T07:51:04;102780.88;;;-6.29;100.00
13734;BME280;43298;52.560;13.508;2022-12-18T07:53:32;102782.78;;;-6.25;100.00
13734;BME280;43298;52.560;13.508;2022-12-18T07:56:05;102785.63;;;-6.34;100.00
13734;BME280;43298;52.560;13.508;2022-12-18T07:58:32;102774.59;;;-6.23;100.00
13734;BME280;43298;52.560;13.508;2022-12-18T08:01:10;102775.25;;;-6.25;100.00
13734;BME280;43298;52.560;13.508;2022-12-18T08:03:39;102770.41;;;-6.22;100.00
13734;BME280;43298;52.560;13.508;2022-12-18T08:06:08;102788.00;;;-6.22;100.00
13734;BME280;43298;52.560;13.508;2022-12-18T08:08:35;102789.03;;;-6.33;100.00
13734;BME280;43298;52.560;13.508;2022-12-18T08:11:01;102786.09;;;-6.41;100.00
13734;BME280;43298;52.560;13.508;2022-12-18T08:13:28;102788.59;;;-6.41;100.00
13734;BME280;43298;52.560;13.508;2022-12-18T08:16:04;102787.22;;;-6.36;100.00
13734;BME280;43298;52.560;13.508;2022-12-18T08:18:35;102783.31;;;-6.31;100.00
13734;BME280;43298;52.560;13.508;2022-12-18T08:23:38;102790.25;;;-6.27;100.00
13734;BME280;43298;52.560;13.508;2022-12-18T08:26:05;102783.78;;;-6.23;100.00
13734;BME280;43298;52.560;13.508;2022-12-18T08:28:31;102793.31;;;-6.18;100.00
13734;BME280;43298;52.560;13.508;2022-12-18T08:30:57;102793.59;;;-6.13;100.00
13734;BME280;43298;52.560;13.508;2022-12-18T08:33:24;102796.53;;;-6.06;100.00
13734;BME280;43298;52.560;13.508;2022-12-18T08:35:49;102790.13;;;-6.01;100.00
13734;BME280;43298;52.560;13.508;2022-12-18T08:38:15;102784.84;;;-6.05;100.00
13734;BME280;43298;52.560;13.508;2022-12-18T08:40:41;102793.06;;;-5.93;100.00
13734;BME280;43298;52.560;13.508;2022-12-18T08:43:09;102793.34;;;-5.89;100.00
13734;BME280;43298;52.560;13.508;2022-12-18T08:45:54;102798.28;;;-5.90;100.00
13734;BME280;43298;52.560;13.508;2022-12-18T08:48:20;102808.63;;;-5.86;100.00
13734;BME280;43298;52.560;13.508;2022-12-18T08:50:57;102803.31;;;-5.90;100.00
13734;BME280;43298;52.560;13.508;2022-12-18T08:53:24;102803.22;;;-5.92;100.00
13734;BME280;43298;52.560;13.508;2022-12-18T08:55:50;102812.59;;;-5.89;100.00
13734;BME280;43298;52.560;13.508;2022-12-18T08:58:16;102822.00;;;-5.87;100.00
13734;BME280;43298;52.560;13.508;2022-12-18T09:00:41;102821.22;;;-5.86;100.00
13734;BME280;43298;52.560;13.508;2022-12-18T09:03:17;102820.94;;;-5.76;100.00
13734;BME280;43298;52.560;13.508;2022-12-18T09:05:45;102825.09;;;-5.76;100.00
13734;BME280;43298;52.560;13.508;2022-12-18T09:08:11;102833.88;;;-5.70;100.00
13734;BME280;43298;52.560;13.508;2022-12-18T09:10:48;102834.13;;;-5.65;100.00
13734;BME280;43298;52.560;13.508;2022-12-18T09:13:15;102822.94;;;-5.70;100.00
13734;BME280;43298;52.560;13.508;2022-12-18T09:15:49;102829.53;;;-5.58;100.00
13734;BME280;43298;52.560;13.508;2022-12-18T09:18:17;102824.25;;;-5.48;100.00
13734;BME280;43298;52.560;13.508;2022-12-18T09:20:43;102830.47;;;-5.56;100.00
13734;BME280;43298;52.560;13.508;2022-12-18T09:23:09;102831.63;;;-5.51;100.00
13734;BME280;43298;52.560;13.508;2022-12-18T09:25:37;102837.69;;;-5.47;100.00
13734;BME280;43298;52.560;13.508;2022-12-18T09:28:15;102839.53;;;-5.45;100.00
13734;BME280;43298;52.560;13.508;2022-12-18T09:30:46;102842.47;;;-5.37;100.00
13734;BME280;43298;52.560;13.508;2022-12-18T09:33:12;102847.94;;;-5.30;100.00
13734;BME280;43298;52.560;13.508;2022-12-18T09:35:39;102829.50;;;-5.29;100.00
13734;BME280;43298;52.560;13.508;2022-12-18T09:38:06;102835.78;;;-5.37;100.00
13734;BME280;43298;52.560;13.508;2022-12-18T09:40:44;102839.78;;;-5.26;100.00
13734;BME280;43298;52.560;13.508;2022-12-18T09:43:37;102838.19;;;-5.24;100.00
13734;BME280;43298;52.560;13.508;2022-12-18T09:46:11;102823.66;;;-5.13;100.00
13734;BME280;43298;52.560;13.508;2022-12-18T09:48:46;102810.59;;;-5.06;100.00
13734;BME280;43298;52.560;13.508;2022-12-18T09:51:21;102806.19;;;-5.10;100.00
13734;BME280;43298;52.560;13.508;2022-12-18T09:54:05;102806.00;;;-5.13;100.00
13734;BME280;43298;52.560;13.508;2022-12-18T09:56:38;102807.03;;;-5.10;100.00
13734;BME280;43298;52.560;13.508;2022-12-18T09:59:05;102802.91;;;-4.93;100.00
13734;BME280;43298;52.560;13.508;2022-12-18T10:01:32;102794.09;;;-4.85;100.00
13734;BME280;43298;52.560;13.508;2022-12-18T10:03:59;102792.84;;;-4.77;100.00
13734;BME280;43298;52.560;13.508;2022-12-18T10:10:06;102774.78;;;-4.85;100.00
13734;BME280;43298;52.560;13.508;2022-12-18T10:13:22;102766.59;;;-4.81;100.00
13734;BME280;43298;52.560;13.508;2022-12-18T10:16:12;102769.69;;;-4.70;100.00
13734;BME280;43298;52.560;13.508;2022-12-18T10:27:23;102768.81;;;-4.55;100.00
13734;BME280;43298;52.560;13.508;2022-12-18T10:29:50;102767.13;;;-4.54;100.00
13734;BME280;43298;52.560;13.508;2022-12-18T10:32:24;102769.50;;;-4.41;100.00
13734;BME280;43298;52.560;13.508;2022-12-18T10:34:58;102766.75;;;-4.30;100.00
13734;BME280;43298;52.560;13.508;2022-12-18T10:37:27;102763.81;;;-4.21;100.00
13734;BME280;43298;52.560;13.508;2022-12-18T10:40:14;102764.53;;;-4.24;100.00
13734;BME280;43298;52.560;13.508;2022-12-18T10:42:41;102763.81;;;-4.37;100.00
13734;BME280;43298;52.560;13.508;2022-12-18T10:45:16;102752.44;;;-4.29;100.00
13734;BME280;43298;52.560;13.508;2022-12-18T10:47:47;102749.25;;;-4.27;100.00
13734;BME280;43298;52.560;13.508;2022-12-18T10:50:34;102739.22;;;-4.25;100.00
13734;BME280;43298;52.560;13.508;2022-12-18T10:53:03;102741.03;;;-4.23;100.00
13734;BME280;43298;52.560;13.508;2022-12-18T10:55:39;102738.56;;;-4.21;100.00
13734;BME280;43298;52.560;13.508;2022-12-18T10:58:35;102730.78;;;-4.08;100.00
13734;BME280;43298;52.560;13.508;2022-12-18T11:01:12;102725.38;;;-4.16;100.00
13734;BME280;43298;52.560;13.508;2022-12-18T11:03:59;102716.63;;;-4.22;100.00
13734;BME280;43298;52.560;13.508;2022-12-18T11:06:25;102715.56;;;-4.10;100.00
13734;BME280;43298;52.560;13.508;2022-12-18T11:09:04;102723.00;;;-4.13;100.00
13734;BME280;43298;52.560;13.508;2022-12-18T11:11:32;102726.34;;;-3.96;100.00
13734;BME280;43298;52.560;13.508;2022-12-18T11:14:14;102718.41;;;-4.04;100.00
13734;BME280;43298;52.560;13.508;2022-12-18T11:16:48;102724.09;;;-4.08;100.00
13734;BME280;43298;52.560;13.508;2022-12-18T11:19:38;102717.56;;;-4.04;100.00
13734;BME280;43298;52.560;13.508;2022-12-18T11:22:40;102714.63;;;-4.12;100.00
13734;BME280;43298;52.560;13.508;2022-12-18T11:25:18;102720.56;;;-4.11;100.00
13734;BME280;43298;52.560;13.508;2022-12-18T11:27:55;102720.25;;;-4.17;100.00
13734;BME280;43298;52.560;13.508;2022-12-18T11:30:31;102722.63;;;-4.20;100.00
13734;BME280;43298;52.560;13.508;2022-12-18T11:33:13;102720.03;;;-4.22;100.00
13734;BME280;43298;52.560;13.508;2022-12-18T11:35:58;102730.75;;;-4.26;100.00
13734;BME280;43298;52.560;13.508;2022-12-18T11:38:37;102725.56;;;-4.29;100.00
13734;BME280;43298;52.560;13.508;2022-12-18T11:41:32;102726.19;;;-4.17;100.00
13734;BME280;43298;52.560;13.508;2022-12-18T11:44:27;102728.25;;;-4.26;100.00
13734;BME280;43298;52.560;13.508;2022-12-18T11:47:08;102723.84;;;-4.12;100.00
13734;BME280;43298;52.560;13.508;2022-12-18T11:49:35;102727.16;;;-4.31;100.00
13734;BME280;43298;52.560;13.508;2022-12-18T11:52:24;102735.41;;;-4.33;100.00
13734;BME280;43298;52.560;13.508;2022-12-18T11:55:00;102737.69;;;-4.22;100.00
13734;BME280;43298;52.560;13.508;2022-12-18T11:57:54;102744.34;;;-4.24;100.00
13734;BME280;43298;52.560;13.508;2022-12-18T12:00:24;102754.44;;;-4.24;100.00
13734;BME280;43298;52.560;13.508;2022-12-18T12:03:31;102748.25;;;-4.13;100.00
13734;BME280;43298;52.560;13.508;2022-12-18T12:06:15;102751.00;;;-4.08;100.00
13734;BME280;43298;52.560;13.508;2022-12-18T12:18:03;102760.53;;;-4.03;100.00
13734;BME280;43298;52.560;13.508;2022-12-18T12:20:42;102760.41;;;-4.06;100.00
13734;BME280;43298;52.560;13.508;2022-12-18T12:35:52;102776.13;;;-4.11;100.00
13734;BME280;43298;52.560;13.508;2022-12-18T12:38:31;102777.38;;;-4.19;100.00
13734;BME280;43298;52.560;13.508;2022-12-18T12:41:09;102778.84;;;-4.07;100.00
13734;BME280;43298;52.560;13.508;2022-12-18T12:43:59;102773.03;;;-4.06;100.00
13734;BME280;43298;52.560;13.508;2022-12-18T12:46:27;102785.78;;;-4.03;100.00
13734;BME280;43298;52.560;13.508;2022-12-18T12:49:20;102784.22;;;-4.01;100.00
13734;BME280;43298;52.560;13.508;2022-12-18T12:54:33;102783.75;;;-4.10;100.00
13734;BME280;43298;52.560;13.508;2022-12-18T12:57:14;102776.41;;;-4.05;100.00
13734;BME280;43298;52.560;13.508;2022-12-18T13:00:12;102761.19;;;-4.07;100.00
13734;BME280;43298;52.560;13.508;2022-12-18T13:03:08;102745.25;;;-4.06;100.00
13734;BME280;43298;52.560;13.508;2022-12-18T13:05:54;102732.53;;;-4.07;100.00
13734;BME280;43298;52.560;13.508;2022-12-18T13:08:58;102722.88;;;-3.98;100.00
13734;BME280;43298;52.560;13.508;2022-12-18T13:11:51;102715.28;;;-3.98;100.00
13734;BME280;43298;52.560;13.508;2022-12-18T13:14:40;102724.59;;;-3.97;100.00
13734;BME280;43298;52.560;13.508;2022-12-18T13:20:08;102738.34;;;-3.92;100.00
13734;BME280;43298;52.560;13.508;2022-12-18T13:25:03;102734.78;;;-3.96;100.00
13734;BME280;43298;52.560;13.508;2022-12-18T13:28:11;102746.00;;;-3.91;100.00
13734;BME280;43298;52.560;13.508;2022-12-18T13:30:41;102738.50;;;-3.89;100.00
13734;BME280;43298;52.560;13.508;2022-12-18T13:38:35;102740.28;;;-3.87;100.00
13734;BME280;43298;52.560;13.508;2022-12-18T13:41:01;102736.75;;;-3.90;100.00
13734;BME280;43298;52.560;13.508;2022-12-18T13:46:21;102734.00;;;-3.95;100.00
13734;BME280;43298;52.560;13.508;2022-12-18T13:51:35;102714.16;;;-4.05;100.00
13734;BME280;43298;52.560;13.508;2022-12-18T13:54:37;102705.69;;;-4.05;100.00
13734;BME280;43298;52.560;13.508;2022-12-18T13:57:24;102704.13;;;-4.03;100.00
13734;BME280;43298;52.560;13.508;2022-12-18T13:59:51;102702.44;;;-4.03;100.00
13734;BME280;43298;52.560;13.508;2022-12-18T14:02:23;102694.94;;;-4.01;100.00
13734;BME280;43298;52.560;13.508;2022-12-18T14:04:50;102694.16;;;-4.00;100.00
13734;BME280;43298;52.560;13.508;2022-12-18T14:07:25;102690.53;;;-4.05;100.00
13734;BME280;43298;52.560;13.508;2022-12-18T14:09:56;102696.22;;;-4.09;100.00
13734;BME280;43298;52.560;13.508;2022-12-18T14:12:26;102700.47;;;-4.08;100.00
13734;BME280;43298;52.560;13.508;2022-12-18T14:21:00;102692.28;;;-4.04;100.00